Time;durP1;ratioP1;P1;durP2;ratioP2;P2;SDS_P1;SDS_P2;PMS_P1;PMS_P2;Temp;Humidity;BMP_temperature;BMP_pressure;BME280_temperature;BME280_humidity;BME280_pressure;Samples;Min_cycle;Max_cycle;Signal;HPM_P1;HPM_P2
2023/08/06 00:01:43;;;;;;;;;;;19.00;72.60;;;;;;5114339;28;20294;-66
2023/08/06 00:04:09;;;;;;;;;;;19.00;72.60;;;;;;5114733;28;19920;-65
2023/08/06 00:06:34;;;;;;;;;;;19.00;72.60;;;;;;5148680;27;19927;-66
2023/08/06 00:09:00;;;;;;;;;;;19.00;72.60;;;;;;5115636;28;19924;-66
2023/08/06 00:11:25;;;;;;;;;;;19.00;72.60;;;;;;5114107;28;19919;-65
2023/08/06 00:13:51;;;;;;;;;;;19.00;72.60;;;;;;5114115;28;19920;-66
2023/08/06 00:16:16;;;;;;;;;;;19.00;72.60;;;;;;5115656;28;19919;-66
2023/08/06 00:18:42;;;;;;;;;;;19.00;72.60;;;;;;5113930;28;19965;-66
2023/08/06 00:21:07;;;;;;;;;;;18.90;72.50;;;;;;5113977;28;19977;-66
2023/08/06 00:23:33;;;;;;;;;;;19.00;72.60;;;;;;5114127;28;19942;-65
2023/08/06 00:25:58;;;;;;;;;;;19.00;72.60;;;;;;5113919;28;19919;-65
2023/08/06 00:28:24;;;;;;;;;;;18.90;72.50;;;;;;5113287;28;19920;-66
2023/08/06 00:30:52;;;;;;;;;;;19.00;73.00;;;;;;5113722;28;20398;-66
2023/08/06 00:33:18;;;;;;;;;;;19.00;72.60;;;;;;5114139;28;20389;-66
2023/08/06 00:35:43;;;;;;;;;;;19.00;72.60;;;;;;5113802;28;19920;-66
2023/08/06 00:38:09;;;;;;;;;;;18.90;72.50;;;;;;5113819;28;19966;-66
2023/08/06 00:40:34;;;;;;;;;;;18.90;72.50;;;;;;5113530;28;19923;-66
2023/08/06 00:43:00;;;;;;;;;;;19.00;72.60;;;;;;5114814;28;20014;-66
2023/08/06 00:45:26;;;;;;;;;;;18.90;72.50;;;;;;5113640;28;19920;-65
2023/08/06 00:47:51;;;;;;;;;;;18.90;72.50;;;;;;5113329;28;19967;-66
2023/08/06 00:50:17;;;;;;;;;;;18.90;72.50;;;;;;5114986;28;20012;-66
2023/08/06 00:52:43;;;;;;;;;;;18.90;72.50;;;;;;5113453;28;19979;-66
2023/08/06 00:55:08;;;;;;;;;;;18.90;72.50;;;;;;5113432;28;20309;-66
2023/08/06 00:57:34;;;;;;;;;;;18.90;72.50;;;;;;5113626;28;20278;-66
2023/08/06 00:59:59;;;;;;;;;;;18.90;72.50;;;;;;5113272;28;19924;-66
2023/08/06 01:02:25;;;;;;;;;;;18.90;72.50;;;;;;5113140;28;19926;-66
2023/08/06 01:04:50;;;;;;;;;;;18.90;72.50;;;;;;5113417;28;19984;-66
2023/08/06 01:07:36;;;;;;;;;;;18.90;72.50;;;;;;5113181;28;20362;-66
2023/08/06 01:12:47;;;;;;;;;;;18.90;72.50;;;;;;5130870;27;19926;-68
2023/08/06 01:15:24;;;;;;;;;;;18.90;72.50;;;;;;5129779;28;19924;-68
2023/08/06 01:17:50;;;;;;;;;;;18.90;72.50;;;;;;5129745;28;20267;-67
2023/08/06 01:20:15;;;;;;;;;;;18.90;72.50;;;;;;5129358;28;19945;-68
2023/08/06 01:22:41;;;;;;;;;;;18.90;72.50;;;;;;5130636;28;20018;-68
2023/08/06 01:25:06;;;;;;;;;;;18.90;72.50;;;;;;5129290;28;20555;-68
2023/08/06 01:27:36;;;;;;;;;;;18.90;72.50;;;;;;5130596;27;19927;-68
2023/08/06 01:32:45;;;;;;;;;;;18.90;72.40;;;;;;5110341;27;19940;-66
2023/08/06 01:35:11;;;;;;;;;;;18.90;72.50;;;;;;5108875;28;19920;-66
2023/08/06 01:37:37;;;;;;;;;;;18.80;72.40;;;;;;5109324;28;19924;-66
2023/08/06 01:40:05;;;;;;;;;;;18.90;72.50;;;;;;5109273;28;19969;-66
2023/08/06 01:42:31;;;;;;;;;;;18.80;72.40;;;;;;5109130;28;20295;-66
2023/08/06 01:44:56;;;;;;;;;;;18.80;72.40;;;;;;5110041;28;19925;-66
2023/08/06 01:47:22;;;;;;;;;;;18.80;72.40;;;;;;5110127;28;19973;-66
2023/08/06 01:49:47;;;;;;;;;;;18.80;72.40;;;;;;5108655;28;19920;-65
2023/08/06 01:52:13;;;;;;;;;;;18.80;72.40;;;;;;5108624;28;19923;-65
2023/08/06 01:54:38;;;;;;;;;;;18.80;72.40;;;;;;5109919;28;19920;-66
2023/08/06 01:57:04;;;;;;;;;;;18.80;72.40;;;;;;5108794;28;20290;-66
2023/08/06 01:59:29;;;;;;;;;;;18.80;72.40;;;;;;5108619;28;20013;-66
2023/08/06 02:01:55;;;;;;;;;;;18.80;72.40;;;;;;5108699;28;19920;-66
2023/08/06 02:04:20;;;;;;;;;;;18.80;72.40;;;;;;5108763;28;20370;-66
2023/08/06 02:06:46;;;;;;;;;;;18.80;72.40;;;;;;5109545;28;19955;-65
2023/08/06 02:09:11;;;;;;;;;;;18.80;72.40;;;;;;5109913;28;19942;-66
2023/08/06 02:11:37;;;;;;;;;;;18.80;72.40;;;;;;5108328;28;19924;-65
2023/08/06 02:14:02;;;;;;;;;;;18.80;72.40;;;;;;5108595;28;20405;-66
2023/08/06 02:16:28;;;;;;;;;;;18.80;72.40;;;;;;5109508;28;19920;-66
2023/08/06 02:18:53;;;;;;;;;;;18.80;72.40;;;;;;5108523;28;20339;-66
2023/08/06 02:21:19;;;;;;;;;;;18.80;72.40;;;;;;5108172;28;19923;-66
2023/08/06 02:23:44;;;;;;;;;;;18.80;72.40;;;;;;5108101;28;19975;-66
2023/08/06 02:26:10;;;;;;;;;;;18.80;72.40;;;;;;5109490;28;19920;-66
2023/08/06 02:28:35;;;;;;;;;;;18.80;72.40;;;;;;5109228;28;20024;-66
2023/08/06 02:31:01;;;;;;;;;;;18.80;72.40;;;;;;5115635;28;19928;-65
2023/08/06 02:33:26;;;;;;;;;;;18.80;72.40;;;;;;5128369;28;19946;-66
2023/08/06 02:35:59;;;;;;;;;;;18.70;72.30;;;;;;5111232;28;19920;-66
2023/08/06 02:38:24;;;;;;;;;;;18.80;72.40;;;;;;5129493;28;19920;-66
2023/08/06 02:40:49;;;;;;;;;;;18.80;72.50;;;;;;5129614;28;19927;-65
2023/08/06 02:43:15;;;;;;;;;;;18.70;72.40;;;;;;5101706;28;19920;-65
2023/08/06 02:45:40;;;;;;;;;;;18.70;72.40;;;;;;5097815;28;19926;-66
2023/08/06 02:48:06;;;;;;;;;;;18.80;72.50;;;;;;5131515;27;20401;-65
2023/08/06 02:50:37;;;;;;;;;;;18.80;72.40;;;;;;5115527;28;19928;-66
2023/08/06 02:53:02;;;;;;;;;;;18.70;72.40;;;;;;5131673;27;19926;-66
2023/08/06 02:55:28;;;;;;;;;;;18.70;72.30;;;;;;5097278;28;20006;-66
2023/08/06 02:57:53;;;;;;;;;;;18.70;72.30;;;;;;5097176;28;19952;-66
2023/08/06 03:00:19;;;;;;;;;;;18.70;72.30;;;;;;5131337;27;19955;-66
2023/08/06 03:02:44;;;;;;;;;;;18.70;72.30;;;;;;5097286;28;19920;-66
2023/08/06 03:05:09;;;;;;;;;;;18.70;72.30;;;;;;5097401;28;19951;-65
2023/08/06 03:07:36;;;;;;;;;;;18.70;72.30;;;;;;5096961;28;19920;-66
2023/08/06 03:10:02;;;;;;;;;;;18.70;72.30;;;;;;5097299;28;19920;-66
2023/08/06 03:12:28;;;;;;;;;;;18.70;72.30;;;;;;5097224;28;20018;-66
2023/08/06 03:14:53;;;;;;;;;;;18.70;72.30;;;;;;5096886;28;20002;-66
2023/08/06 03:17:19;;;;;;;;;;;18.70;72.30;;;;;;5096891;28;20022;-66
2023/08/06 03:19:44;;;;;;;;;;;18.70;72.30;;;;;;5115121;28;19927;-66
2023/08/06 03:22:10;;;;;;;;;;;18.70;72.30;;;;;;5096811;28;19985;-65
2023/08/06 03:24:35;;;;;;;;;;;18.70;72.30;;;;;;5096885;28;19923;-65
2023/08/06 03:27:01;;;;;;;;;;;18.70;72.40;;;;;;5096653;28;20295;-66
2023/08/06 03:29:27;;;;;;;;;;;18.70;72.30;;;;;;5096531;28;19927;-66
2023/08/06 03:31:52;;;;;;;;;;;18.70;72.30;;;;;;5096402;28;20329;-66
2023/08/06 03:34:18;;;;;;;;;;;18.70;72.30;;;;;;5096552;28;19931;-66
2023/08/06 03:36:43;;;;;;;;;;;18.70;72.30;;;;;;5096462;28;19920;-66
2023/08/06 03:39:09;;;;;;;;;;;18.70;72.30;;;;;;5096340;28;19969;-66
2023/08/06 03:41:34;;;;;;;;;;;18.70;72.30;;;;;;5096410;28;20293;-66
2023/08/06 03:44:02;;;;;;;;;;;18.70;72.30;;;;;;5096250;28;19919;-66
2023/08/06 03:46:28;;;;;;;;;;;18.70;72.30;;;;;;5096531;28;19952;-66
2023/08/06 03:48:53;;;;;;;;;;;18.70;72.30;;;;;;5096360;28;19923;-66
2023/08/06 03:51:19;;;;;;;;;;;18.70;72.30;;;;;;5114565;28;19923;-66
2023/08/06 03:53:44;;;;;;;;;;;18.70;72.30;;;;;;5095876;28;20392;-66
2023/08/06 03:56:10;;;;;;;;;;;18.70;72.30;;;;;;5113920;28;19977;-66
2023/08/06 03:58:35;;;;;;;;;;;18.60;72.30;;;;;;5096394;28;19920;-66
2023/08/06 04:01:01;;;;;;;;;;;18.60;72.20;;;;;;5114348;28;19977;-66
2023/08/06 04:03:27;;;;;;;;;;;18.70;72.40;;;;;;5095901;28;19923;-65
2023/08/06 04:05:53;;;;;;;;;;;18.70;72.30;;;;;;5095868;28;19924;-66
2023/08/06 04:08:19;;;;;;;;;;;18.60;72.20;;;;;;5114201;28;19920;-66
2023/08/06 04:10:44;;;;;;;;;;;18.60;72.20;;;;;;5113289;28;19927;-65
2023/08/06 04:13:10;;;;;;;;;;;18.70;72.30;;;;;;5095739;28;19919;-65
2023/08/06 04:15:35;;;;;;;;;;;18.70;72.30;;;;;;5095928;28;19927;-66
2023/08/06 04:18:00;;;;;;;;;;;18.70;72.30;;;;;;5114425;28;19919;-65
2023/08/06 04:20:26;;;;;;;;;;;18.60;72.30;;;;;;5113892;28;20290;-66
2023/08/06 04:22:54;;;;;;;;;;;18.60;72.20;;;;;;5096017;28;19923;-66
2023/08/06 04:25:20;;;;;;;;;;;18.70;72.30;;;;;;5095468;28;20394;-66
2023/08/06 04:27:46;;;;;;;;;;;18.60;72.20;;;;;;5113721;28;20382;-66
2023/08/06 04:30:12;;;;;;;;;;;18.60;72.20;;;;;;5095698;28;19920;-66
2023/08/06 04:32:38;;;;;;;;;;;18.60;72.20;;;;;;5113385;28;19924;-66
2023/08/06 04:35:04;;;;;;;;;;;18.60;72.20;;;;;;5113604;28;20023;-66
2023/08/06 04:37:29;;;;;;;;;;;18.60;72.20;;;;;;5113683;28;19961;-66
2023/08/06 04:39:55;;;;;;;;;;;18.60;72.20;;;;;;5113559;28;19973;-66
2023/08/06 04:42:20;;;;;;;;;;;18.60;72.20;;;;;;5095297;28;19930;-66
2023/08/06 04:44:46;;;;;;;;;;;18.60;72.20;;;;;;5113683;28;19920;-66
2023/08/06 04:47:11;;;;;;;;;;;18.60;72.20;;;;;;5095158;28;19972;-65
2023/08/06 04:49:37;;;;;;;;;;;18.60;72.20;;;;;;5095516;28;20026;-66
2023/08/06 04:52:02;;;;;;;;;;;18.60;72.20;;;;;;5095005;28;19924;-66
2023/08/06 04:54:28;;;;;;;;;;;18.60;72.30;;;;;;5095426;28;20290;-65
2023/08/06 04:56:53;;;;;;;;;;;18.60;72.20;;;;;;5095202;28;19923;-66
2023/08/06 04:59:19;;;;;;;;;;;18.60;72.20;;;;;;5095064;28;19919;-66
2023/08/06 05:01:44;;;;;;;;;;;18.60;72.20;;;;;;5094834;28;19919;-66
2023/08/06 05:04:10;;;;;;;;;;;18.60;72.20;;;;;;5129401;27;19921;-65
2023/08/06 05:06:38;;;;;;;;;;;18.60;72.20;;;;;;5094585;28;20354;-66
2023/08/06 05:09:04;;;;;;;;;;;18.60;72.20;;;;;;5094855;28;20011;-66
2023/08/06 05:11:30;;;;;;;;;;;18.60;72.20;;;;;;5094796;28;19926;-66
2023/08/06 05:13:55;;;;;;;;;;;18.60;72.20;;;;;;5113067;28;20378;-66
2023/08/06 05:16:20;;;;;;;;;;;18.60;72.20;;;;;;5094768;28;19926;-66
2023/08/06 05:18:46;;;;;;;;;;;18.60;72.20;;;;;;5112599;28;19920;-65
2023/08/06 05:21:11;;;;;;;;;;;18.60;72.20;;;;;;5094833;28;19920;-66
2023/08/06 05:23:37;;;;;;;;;;;18.60;72.20;;;;;;5112955;28;20302;-65
2023/08/06 05:26:02;;;;;;;;;;;18.60;72.20;;;;;;5112992;28;20439;-66
2023/08/06 05:28:28;;;;;;;;;;;18.60;72.20;;;;;;5094479;28;20018;-66
2023/08/06 05:30:53;;;;;;;;;;;18.60;72.20;;;;;;5094194;28;20002;-66
2023/08/06 05:33:19;;;;;;;;;;;18.60;72.20;;;;;;5112827;28;19985;-66
2023/08/06 05:35:44;;;;;;;;;;;18.60;72.20;;;;;;5094900;28;19926;-66
2023/08/06 05:38:10;;;;;;;;;;;18.60;72.20;;;;;;5094543;28;20014;-66
2023/08/06 05:40:35;;;;;;;;;;;18.60;72.20;;;;;;5094786;28;19920;-66
2023/08/06 05:43:01;;;;;;;;;;;18.60;72.20;;;;;;5094391;28;19927;-66
2023/08/06 05:45:26;;;;;;;;;;;18.60;72.20;;;;;;5112984;28;19928;-66
2023/08/06 05:47:54;;;;;;;;;;;18.60;72.20;;;;;;5094755;28;19959;-66
2023/08/06 05:50:19;;;;;;;;;;;18.60;72.20;;;;;;5112655;28;19919;-66
2023/08/06 05:52:45;;;;;;;;;;;18.60;72.20;;;;;;5094346;28;19927;-66
2023/08/06 05:55:10;;;;;;;;;;;18.60;72.20;;;;;;5094831;28;19985;-66
2023/08/06 05:57:36;;;;;;;;;;;18.60;72.20;;;;;;5094379;28;19919;-66
2023/08/06 06:00:02;;;;;;;;;;;18.60;72.20;;;;;;5112479;28;19927;-66
2023/08/06 06:02:27;;;;;;;;;;;18.60;72.20;;;;;;5094246;28;19927;-66
2023/08/06 06:04:53;;;;;;;;;;;18.60;72.20;;;;;;5094230;28;19927;-66
2023/08/06 06:07:18;;;;;;;;;;;18.60;72.20;;;;;;5094615;28;19985;-66
2023/08/06 06:09:44;;;;;;;;;;;18.60;72.20;;;;;;5112554;28;20263;-66
2023/08/06 06:12:09;;;;;;;;;;;18.60;72.20;;;;;;5128318;28;19967;-66
2023/08/06 06:14:35;;;;;;;;;;;18.60;72.10;;;;;;5128199;28;20443;-66
2023/08/06 06:17:03;;;;;;;;;;;18.60;72.10;;;;;;5112604;28;19927;-73
2023/08/06 06:19:29;;;;;;;;;;;18.60;72.10;;;;;;5132092;27;19927;-67
2023/08/06 06:21:57;;;;;;;;;;;18.60;72.10;;;;;;5132162;27;19919;-66
2023/08/06 06:24:23;;;;;;;;;;;18.60;72.10;;;;;;5098192;28;19919;-66
2023/08/06 06:26:48;;;;;;;;;;;18.60;72.10;;;;;;5097922;28;19927;-66
2023/08/06 06:29:13;;;;;;;;;;;18.60;72.10;;;;;;5131930;27;19971;-65
2023/08/06 06:31:39;;;;;;;;;;;18.70;72.20;;;;;;5097612;28;19928;-66
2023/08/06 06:34:04;;;;;;;;;;;18.60;72.10;;;;;;5097620;28;19920;-66
2023/08/06 06:36:30;;;;;;;;;;;18.60;72.10;;;;;;5098031;28;20061;-66
2023/08/06 06:38:55;;;;;;;;;;;18.60;72.10;;;;;;5097645;28;19920;-66
2023/08/06 06:41:21;;;;;;;;;;;18.60;72.10;;;;;;5097576;28;19924;-66
2023/08/06 06:43:46;;;;;;;;;;;18.60;72.10;;;;;;5097888;28;19920;-66
2023/08/06 06:46:12;;;;;;;;;;;18.60;72.10;;;;;;5097744;28;19976;-66
2023/08/06 06:48:37;;;;;;;;;;;18.60;72.10;;;;;;5116021;28;19926;-66
2023/08/06 06:51:03;;;;;;;;;;;18.60;72.10;;;;;;5115737;28;19927;-66
2023/08/06 06:53:28;;;;;;;;;;;18.70;72.20;;;;;;5131598;27;20441;-66
2023/08/06 06:55:54;;;;;;;;;;;18.60;72.10;;;;;;5097257;28;19920;-66
2023/08/06 06:58:20;;;;;;;;;;;18.60;72.10;;;;;;5097575;28;19926;-66
2023/08/06 07:00:46;;;;;;;;;;;18.60;72.20;;;;;;5097029;28;20343;-66
2023/08/06 07:03:12;;;;;;;;;;;18.60;72.10;;;;;;5115563;28;19924;-66
2023/08/06 07:05:37;;;;;;;;;;;18.60;72.10;;;;;;5097297;28;19964;-66
2023/08/06 07:08:03;;;;;;;;;;;18.60;72.10;;;;;;5097399;28;19924;-66
2023/08/06 07:10:28;;;;;;;;;;;18.70;72.20;;;;;;5097183;28;19963;-66
2023/08/06 07:12:54;;;;;;;;;;;18.70;72.20;;;;;;5115333;28;20066;-66
2023/08/06 07:15:19;;;;;;;;;;;18.70;72.20;;;;;;5097138;28;20417;-66
2023/08/06 07:17:45;;;;;;;;;;;18.60;72.10;;;;;;5115156;28;20299;-65
2023/08/06 07:20:11;;;;;;;;;;;18.60;72.10;;;;;;5115295;28;19923;-66
2023/08/06 07:22:36;;;;;;;;;;;18.70;72.20;;;;;;5096848;28;19924;-66
2023/08/06 07:25:02;;;;;;;;;;;18.60;72.10;;;;;;5097014;28;19920;-66
2023/08/06 07:27:27;;;;;;;;;;;18.60;72.10;;;;;;5096620;28;20331;-66
2023/08/06 07:29:53;;;;;;;;;;;18.70;72.20;;;;;;5114697;28;19923;-65
2023/08/06 07:32:18;;;;;;;;;;;18.60;72.10;;;;;;5096313;28;19971;-66
2023/08/06 07:34:44;;;;;;;;;;;18.60;72.10;;;;;;5096835;28;19920;-66
2023/08/06 07:37:09;;;;;;;;;;;18.60;72.10;;;;;;5096788;28;19919;-66
2023/08/06 07:39:35;;;;;;;;;;;18.70;72.10;;;;;;5114885;28;19919;-66
2023/08/06 07:42:02;;;;;;;;;;;18.60;72.10;;;;;;5096422;28;19924;-66
2023/08/06 07:44:27;;;;;;;;;;;18.70;72.10;;;;;;5114723;28;19924;-71
2023/08/06 07:46:53;;;;;;;;;;;18.60;72.00;;;;;;5096504;28;19923;-66
2023/08/06 07:49:18;;;;;;;;;;;18.70;72.10;;;;;;5114428;28;20357;-66
2023/08/06 07:51:44;;;;;;;;;;;18.70;72.10;;;;;;5096387;28;19923;-66
2023/08/06 07:54:09;;;;;;;;;;;18.60;72.00;;;;;;5096142;28;20010;-66
2023/08/06 07:56:36;;;;;;;;;;;18.70;72.10;;;;;;5095988;28;19966;-66
2023/08/06 07:59:02;;;;;;;;;;;18.70;72.10;;;;;;5114333;28;19942;-66
2023/08/06 08:01:27;;;;;;;;;;;18.70;72.10;;;;;;5095871;28;20006;-66
2023/08/06 08:03:53;;;;;;;;;;;18.60;72.70;;;;;;5114059;28;19923;-66
2023/08/06 08:06:18;;;;;;;;;;;18.70;72.00;;;;;;5114192;28;19920;-65
2023/08/06 08:08:44;;;;;;;;;;;18.70;72.00;;;;;;5095818;28;19973;-65
2023/08/06 08:11:09;;;;;;;;;;;18.70;72.00;;;;;;5096144;28;20058;-66
2023/08/06 08:13:35;;;;;;;;;;;18.70;72.00;;;;;;5114015;28;19927;-66
2023/08/06 08:16:00;;;;;;;;;;;18.70;72.00;;;;;;5129812;27;19964;-73
2023/08/06 08:18:26;;;;;;;;;;;18.70;72.00;;;;;;5130075;27;19974;-66
2023/08/06 08:20:52;;;;;;;;;;;18.70;72.00;;;;;;5114109;28;20271;-66
2023/08/06 08:23:17;;;;;;;;;;;18.70;72.00;;;;;;5129714;27;20123;-65
2023/08/06 08:25:42;;;;;;;;;;;18.70;72.00;;;;;;5114012;28;19931;-69
2023/08/06 08:28:08;;;;;;;;;;;18.70;72.00;;;;;;5129467;27;19920;-66
2023/08/06 08:30:33;;;;;;;;;;;18.70;71.90;;;;;;5095465;28;19923;-65
2023/08/06 08:32:59;;;;;;;;;;;18.70;72.00;;;;;;5095356;28;19927;-66
2023/08/06 08:35:25;;;;;;;;;;;18.70;71.90;;;;;;5113518;28;20016;-66
2023/08/06 08:37:51;;;;;;;;;;;18.70;71.90;;;;;;5113843;28;20011;-65
2023/08/06 08:40:17;;;;;;;;;;;18.70;71.90;;;;;;5112967;28;20400;-66
2023/08/06 08:42:43;;;;;;;;;;;18.70;71.90;;;;;;5129514;27;20011;-65
2023/08/06 08:45:13;;;;;;;;;;;18.70;71.90;;;;;;5129560;27;19920;-66
2023/08/06 08:47:40;;;;;;;;;;;18.70;71.90;;;;;;5095246;28;19919;-65
2023/08/06 08:50:06;;;;;;;;;;;18.70;71.90;;;;;;5095370;28;20370;-66
2023/08/06 08:52:34;;;;;;;;;;;18.70;71.90;;;;;;5095425;28;19920;-65
2023/08/06 08:55:01;;;;;;;;;;;18.70;71.90;;;;;;5113228;28;19998;-70
2023/08/06 08:57:26;;;;;;;;;;;18.70;71.80;;;;;;5129426;27;19927;-66
2023/08/06 08:59:52;;;;;;;;;;;18.70;71.80;;;;;;5094984;28;19920;-70
2023/08/06 09:02:18;;;;;;;;;;;18.70;71.80;;;;;;5094950;28;19962;-70
2023/08/06 09:04:44;;;;;;;;;;;18.70;71.80;;;;;;5095121;28;19996;-66
2023/08/06 09:07:13;;;;;;;;;;;18.70;71.80;;;;;;5095135;28;19919;-65
2023/08/06 09:09:39;;;;;;;;;;;18.70;71.80;;;;;;5094820;28;20431;-65
2023/08/06 09:12:10;;;;;;;;;;;18.70;71.80;;;;;;5113164;28;20290;-66
2023/08/06 09:14:35;;;;;;;;;;;18.70;71.80;;;;;;5094638;28;19927;-66
2023/08/06 09:17:01;;;;;;;;;;;18.70;71.70;;;;;;5094942;28;19920;-66
2023/08/06 09:19:26;;;;;;;;;;;18.70;71.70;;;;;;5094597;28;19924;-66
2023/08/06 09:21:52;;;;;;;;;;;18.70;71.70;;;;;;5094001;28;19965;-66
2023/08/06 09:24:18;;;;;;;;;;;18.70;71.70;;;;;;5112875;28;20363;-66
2023/08/06 09:26:44;;;;;;;;;;;18.70;71.80;;;;;;5112748;28;19931;-65
2023/08/06 09:29:11;;;;;;;;;;;18.70;71.70;;;;;;5094940;28;19926;-72
2023/08/06 09:34:22;;;;;;;;;;;18.70;71.60;;;;;;5130960;27;19916;-65
2023/08/06 09:36:50;;;;;;;;;;;18.70;71.60;;;;;;5130867;27;20279;-66
2023/08/06 09:39:17;;;;;;;;;;;18.70;71.70;;;;;;5129735;28;19942;-65
2023/08/06 09:41:42;;;;;;;;;;;18.70;71.70;;;;;;5129314;28;20394;-66
2023/08/06 09:44:24;;;;;;;;;;;18.80;71.70;;;;;;5129886;28;19926;-65
2023/08/06 09:52:13;;;;;;;;;;;18.70;71.60;;;;;;5110281;27;19912;-65
2023/08/06 09:54:39;;;;;;;;;;;18.80;71.60;;;;;;5108967;28;19959;-66
2023/08/06 09:57:05;;;;;;;;;;;18.70;71.60;;;;;;5108875;28;20404;-65
2023/08/06 09:59:31;;;;;;;;;;;18.80;71.60;;;;;;5109241;28;19985;-65
2023/08/06 10:01:57;;;;;;;;;;;18.70;71.60;;;;;;5108739;28;20371;-66
2023/08/06 10:04:23;;;;;;;;;;;18.80;71.60;;;;;;5109067;28;19920;-66
2023/08/06 10:06:48;;;;;;;;;;;18.80;71.60;;;;;;5108646;28;20079;-65
2023/08/06 10:09:14;;;;;;;;;;;18.70;71.50;;;;;;5108764;28;19928;-65
2023/08/06 10:11:40;;;;;;;;;;;18.80;71.60;;;;;;5109981;28;20018;-65
2023/08/06 10:14:07;;;;;;;;;;;18.80;72.30;;;;;;5109854;28;20449;-66
2023/08/06 10:16:34;;;;;;;;;;;18.80;71.50;;;;;;5110018;28;19962;-65
2023/08/06 10:19:00;;;;;;;;;;;18.70;71.50;;;;;;5108844;28;20401;-66
2023/08/06 10:21:27;;;;;;;;;;;18.80;71.50;;;;;;5109778;28;19927;-66
2023/08/06 10:23:54;;;;;;;;;;;18.80;71.60;;;;;;5109838;28;19920;-66
2023/08/06 10:26:19;;;;;;;;;;;18.80;71.60;;;;;;5109708;28;19969;-65
2023/08/06 10:28:45;;;;;;;;;;;18.80;71.50;;;;;;5108432;28;20004;-65
2023/08/06 10:31:10;;;;;;;;;;;18.80;71.50;;;;;;5108370;28;19932;-65
2023/08/06 10:33:44;;;;;;;;;;;18.70;71.50;;;;;;5108223;28;20015;-65
2023/08/06 10:36:10;;;;;;;;;;;18.80;71.50;;;;;;5108571;28;20170;-65
2023/08/06 10:38:43;;;;;;;;;;;18.80;71.50;;;;;;5109404;28;19942;-65
2023/08/06 10:41:14;;;;;;;;;;;18.80;71.40;;;;;;5109306;28;19919;-66
2023/08/06 10:43:41;;;;;;;;;;;18.80;71.50;;;;;;5108324;28;19958;-66
2023/08/06 10:46:10;;;;;;;;;;;18.80;72.20;;;;;;5107985;28;19970;-66
2023/08/06 10:48:37;;;;;;;;;;;18.80;71.40;;;;;;5108243;28;19920;-65
2023/08/06 10:51:03;;;;;;;;;;;18.80;71.30;;;;;;5107533;28;19924;-65
2023/08/06 10:53:29;;;;;;;;;;;18.80;71.30;;;;;;5107794;28;19920;-66
2023/08/06 10:55:54;;;;;;;;;;;18.80;71.40;;;;;;5109534;28;19930;-65
2023/08/06 10:58:20;;;;;;;;;;;18.90;71.50;;;;;;5107998;28;20378;-66
2023/08/06 11:00:46;;;;;;;;;;;18.80;71.40;;;;;;5109008;28;19920;-66
2023/08/06 11:03:11;;;;;;;;;;;18.80;71.40;;;;;;5096155;28;19920;-65
2023/08/06 11:05:37;;;;;;;;;;;18.80;71.40;;;;;;5094078;28;19920;-65
2023/08/06 11:08:02;;;;;;;;;;;18.80;71.40;;;;;;5095217;28;20050;-66
2023/08/06 11:10:28;;;;;;;;;;;18.80;71.30;;;;;;5095205;28;20374;-65
2023/08/06 11:12:53;;;;;;;;;;;18.80;71.40;;;;;;5094241;28;20401;-66
2023/08/06 11:15:20;;;;;;;;;;;18.80;71.40;;;;;;5093767;28;20398;-65
2023/08/06 11:17:46;;;;;;;;;;;18.90;71.40;;;;;;5094136;28;19920;-65
2023/08/06 11:20:11;;;;;;;;;;;18.90;71.40;;;;;;5094025;28;19920;-72
2023/08/06 11:22:37;;;;;;;;;;;18.80;71.30;;;;;;5093770;28;19920;-66
2023/08/06 11:25:03;;;;;;;;;;;18.90;71.40;;;;;;5093940;28;20008;-65
2023/08/06 11:27:29;;;;;;;;;;;18.90;71.40;;;;;;5093554;28;19920;-65
2023/08/06 11:29:55;;;;;;;;;;;18.80;71.40;;;;;;5093550;28;19952;-66
2023/08/06 11:32:20;;;;;;;;;;;18.80;71.40;;;;;;5093576;28;19920;-66
2023/08/06 11:34:45;;;;;;;;;;;18.90;71.40;;;;;;5093783;28;19926;-66
2023/08/06 11:37:11;;;;;;;;;;;18.90;71.40;;;;;;5094896;28;19920;-66
2023/08/06 11:39:38;;;;;;;;;;;18.80;71.30;;;;;;5093625;28;19920;-66
2023/08/06 11:42:05;;;;;;;;;;;18.90;71.40;;;;;;5093260;28;19924;-65
2023/08/06 11:44:33;;;;;;;;;;;18.80;71.30;;;;;;5093600;28;20333;-65
2023/08/06 11:47:01;;;;;;;;;;;18.90;71.40;;;;;;5093620;28;19931;-65
2023/08/06 11:49:46;;;;;;;;;;;18.90;71.40;;;;;;5093229;28;19936;-66
2023/08/06 11:55:10;;;;;;;;;;;18.90;71.40;;;;;;5110170;27;19934;-66
2023/08/06 11:57:36;;;;;;;;;;;18.80;71.30;;;;;;5109003;28;20022;-65
2023/08/06 12:00:06;;;;;;;;;;;18.90;71.40;;;;;;5109222;28;19920;-65
2023/08/06 12:02:37;;;;;;;;;;;18.90;71.40;;;;;;5108880;28;19920;-65
2023/08/06 12:07:51;;;;;;;;;;;18.90;71.40;;;;;;5110766;27;19960;-65
2023/08/06 12:10:19;;;;;;;;;;;18.90;71.40;;;;;;5108958;28;19920;-66
2023/08/06 12:12:45;;;;;;;;;;;18.90;71.40;;;;;;5109260;28;19920;-65
2023/08/06 12:15:11;;;;;;;;;;;18.90;71.40;;;;;;5108793;28;20322;-65
2023/08/06 12:17:37;;;;;;;;;;;18.90;71.40;;;;;;5109180;28;20011;-66
2023/08/06 12:20:04;;;;;;;;;;;18.90;71.40;;;;;;5108799;28;19924;-70
2023/08/06 12:22:34;;;;;;;;;;;18.90;71.40;;;;;;5108782;28;19980;-65
2023/08/06 12:25:00;;;;;;;;;;;18.90;71.40;;;;;;5109071;28;19999;-66
2023/08/06 12:27:26;;;;;;;;;;;18.90;71.40;;;;;;5108720;28;20359;-66
2023/08/06 12:29:51;;;;;;;;;;;18.90;71.40;;;;;;5108952;28;20205;-65
2023/08/06 12:32:17;;;;;;;;;;;18.90;71.40;;;;;;5108903;28;19920;-65
2023/08/06 12:34:43;;;;;;;;;;;18.90;71.40;;;;;;5108827;28;20286;-65
2023/08/06 12:37:09;;;;;;;;;;;18.90;71.50;;;;;;5109922;28;20339;-66
2023/08/06 12:39:35;;;;;;;;;;;18.90;71.40;;;;;;5109858;28;20320;-65
2023/08/06 12:42:00;;;;;;;;;;;18.90;71.50;;;;;;5109799;28;19965;-65
2023/08/06 12:44:26;;;;;;;;;;;18.90;71.40;;;;;;5108840;28;19920;-66
2023/08/06 12:46:52;;;;;;;;;;;18.90;71.50;;;;;;5108236;28;20019;-65
2023/08/06 12:49:18;;;;;;;;;;;18.90;71.50;;;;;;5109552;28;20290;-70
2023/08/06 12:51:44;;;;;;;;;;;18.90;71.50;;;;;;5109482;28;19920;-65
2023/08/06 12:54:09;;;;;;;;;;;18.90;71.50;;;;;;5108401;28;19969;-73
2023/08/06 12:56:35;;;;;;;;;;;19.00;71.60;;;;;;5109513;28;19920;-66
2023/08/06 12:59:00;;;;;;;;;;;18.90;71.60;;;;;;5108402;28;19934;-66
2023/08/06 13:01:25;;;;;;;;;;;18.90;71.60;;;;;;5109357;28;20000;-65
2023/08/06 13:03:51;;;;;;;;;;;18.90;71.50;;;;;;5109262;28;20032;-64
2023/08/06 13:06:16;;;;;;;;;;;18.90;71.70;;;;;;5107679;28;20332;-65
2023/08/06 13:08:42;;;;;;;;;;;18.90;71.60;;;;;;5107800;28;19920;-65
2023/08/06 13:11:07;;;;;;;;;;;18.90;71.60;;;;;;5109514;28;20302;-65
2023/08/06 13:13:33;;;;;;;;;;;18.90;71.60;;;;;;5107699;28;19927;-64
2023/08/06 13:15:58;;;;;;;;;;;18.90;71.60;;;;;;5109165;28;19920;-64
2023/08/06 13:18:24;;;;;;;;;;;18.90;71.70;;;;;;5098541;28;20391;-65
2023/08/06 13:20:52;;;;;;;;;;;18.90;71.80;;;;;;5093684;28;19924;-65
2023/08/06 13:23:18;;;;;;;;;;;18.90;71.80;;;;;;5094163;28;19920;-65
2023/08/06 13:25:43;;;;;;;;;;;18.90;71.90;;;;;;5095362;28;20414;-65
2023/08/06 13:28:09;;;;;;;;;;;19.00;71.80;;;;;;5093897;28;19965;-65
2023/08/06 13:30:37;;;;;;;;;;;18.90;71.80;;;;;;5094208;28;19989;-65
2023/08/06 13:33:04;;;;;;;;;;;18.90;71.70;;;;;;5093812;28;19970;-64
2023/08/06 13:35:29;;;;;;;;;;;18.90;71.90;;;;;;5095115;28;19927;-65
2023/08/06 13:37:55;;;;;;;;;;;18.90;71.90;;;;;;5095184;28;20442;-65
2023/08/06 13:40:21;;;;;;;;;;;18.90;71.90;;;;;;5094006;28;19976;-65
2023/08/06 13:42:46;;;;;;;;;;;18.90;72.00;;;;;;5093989;28;19920;-65
2023/08/06 13:45:12;;;;;;;;;;;19.00;72.00;;;;;;5093929;28;20398;-65
2023/08/06 13:47:37;;;;;;;;;;;19.00;72.00;;;;;;5093557;28;19924;-65
2023/08/06 13:50:03;;;;;;;;;;;19.00;72.00;;;;;;5093502;28;19920;-65
2023/08/06 13:52:28;;;;;;;;;;;18.90;72.00;;;;;;5094654;28;19927;-66
2023/08/06 13:54:54;;;;;;;;;;;18.90;72.00;;;;;;5093668;28;19920;-65
2023/08/06 13:57:19;;;;;;;;;;;18.90;72.00;;;;;;5093462;28;19963;-66
2023/08/06 13:59:45;;;;;;;;;;;18.90;72.00;;;;;;5093589;28;19965;-66
2023/08/06 14:02:10;;;;;;;;;;;19.00;72.10;;;;;;5093260;28;19927;-65
2023/08/06 14:04:37;;;;;;;;;;;19.00;72.10;;;;;;5093489;28;19983;-66
2023/08/06 14:07:03;;;;;;;;;;;19.00;72.00;;;;;;5092966;28;19950;-66
2023/08/06 14:09:28;;;;;;;;;;;19.00;72.10;;;;;;5094612;28;20272;-66
2023/08/06 14:11:54;;;;;;;;;;;19.00;72.10;;;;;;5093447;28;19921;-65
2023/08/06 14:14:25;;;;;;;;;;;18.90;72.00;;;;;;5076477;28;19924;-66
2023/08/06 14:16:51;;;;;;;;;;;18.90;72.10;;;;;;5093064;28;19924;-66
2023/08/06 14:19:17;;;;;;;;;;;18.90;72.10;;;;;;5093250;28;19920;-66
2023/08/06 14:21:42;;;;;;;;;;;19.00;72.20;;;;;;5094143;28;20386;-65
2023/08/06 14:24:08;;;;;;;;;;;19.00;72.20;;;;;;5094103;28;20010;-66
2023/08/06 14:26:34;;;;;;;;;;;18.90;72.10;;;;;;5093998;28;19924;-66
2023/08/06 14:29:00;;;;;;;;;;;19.00;72.20;;;;;;5092403;28;19928;-65